To NAV CANADA Home Page Login to a new session Search on AWWS site Disclaimer Vers la page française équivalente Tips FAQ What's new on the site To the Forecasts and Observations / NOTAM section To "File a Flight Plan" website Publications and other links Update of the User's profile FIC Telephone Numbers My Weather Data Folder Route Weather Data Regional Weather Data Local Weather Data To the Forecasts and Observations / NOTAM section
Request Generated 03/18/2019 at 20:02:21 UTC . Weather information available at that time is displayed.

METAR/TAF

OTTAWA/MACDONALD-CARTIER INTL/ON    

METAR CYOW 182000Z 29014G20KT 15SM FEW040 FEW100 M02/M15 A3024 RMK SC1AC1 SLP248=
METAR CYOW 181900Z 29012KT 15SM FEW100 M02/M15 A3024 RMK AC1 AC TR SLP250=
METAR CYOW 181800Z 30014KT 15SM FEW100 M03/M14 A3025 RMK AC1 AC TR SLP253=

TAF CYOW 181740Z 1818/1918 28010G20KT P6SM SKC
BECMG 1821/1823 30008KT
FM190000 31006KT P6SM SCT050
FM190800 VRB03KT P6SM SKC
RMK NXT FCST BY 182100Z=
Your time UTC time
Weather data provided by Environment Canada and NAV CANADA